Date,TemperatureHighF,TemperatureAvgF,TemperatureLowF,DewpointHighF,DewpointAvgF,DewpointLowF,HumidityHigh,HumidityAvg,HumidityLow,PressureMaxIn,PressureMinIn,WindSpeedMaxMPH,WindSpeedAvgMPH,GustSpeedMaxMPH,PrecipitationSumIn
2013-5-1,87,70,54,52,44,30,82,47,14,30.27,30.16,8,1,12,0.00
2013-5-2,85,67,49,43,36,21,59,34,10,30.35,30.20,8,1,12,0.00
2013-5-3,85,70,51,46,42,39,71,40,21,30.24,30.14,8,1,10,0.02
2013-5-4,83,67,52,48,41,34,60,41,19,30.22,30.08,6,0,11,0.02
2013-5-5,85,65,44,49,42,30,87,50,14,30.14,30.02,7,0,8,0.00
2013-5-6,84,63,40,43,38,21,93,47,10,30.10,29.96,5,0,7,0.00
2013-5-7,86,68,47,56,50,43,89,57,28,30.07,29.95,9,0,10,0.00
2013-5-8,77,62,50,62,55,47,96,78,51,29.99,29.87,6,0,8,0.54
2013-5-9,71,61,58,62,59,57,98,93,73,29.87,29.81,12,0,12,0.53
2013-5-10,82,62,50,65,56,49,97,83,54,29.89,29.67,8,0,8,0.59
2013-5-11,61,54,46,59,50,43,95,87,73,29.72,29.60,17,5,17,0.70
2013-5-12,52,45,38,47,38,31,92,76,55,29.85,29.62,27,10,27,0.06
2013-5-13,51,42,35,37,34,30,83,71,55,30.06,29.85,20,9,20,0.00
2013-5-14,66,48,31,41,34,28,95,61,25,30.09,29.88,8,0,8,0.00
2013-5-15,82,58,48,61,45,38,74,62,40,29.88,29.47,26,4,27,0.07
2013-5-16,78,65,50,51,44,33,81,50,23,29.96,29.68,19,6,21,0.00
2013-5-17,73,55,20,46,37,-28,92,56,10,30.16,29.96,24,1,24,0.00
2013-5-18,62,46,40,48,42,38,94,85,58,30.20,30.16,0,0,0,0.00
2013-5-29,82,72,62,71,65,61,99,80,56,29.97,29.83,18,4,18,0.12
2013-5-30,91,77,62,70,65,59,93,69,39,30.06,29.96,14,2,14,0.00
2013-5-31,94,80,64,71,66,62,94,66,36,30.02,29.87,11,1,11,0.00